sensor_id;sensor_type;location;lat;lon;timestamp;pressure;altitude;pressure_sealevel;temperature;humidity
68822;BME280;55834;50.870;4.606;2023-12-20T00:01:44;101109.69;;;6.19;59.54
68822;BME280;55834;50.870;4.606;2023-12-20T00:04:10;101110.59;;;6.15;58.58
68822;BME280;55834;50.870;4.606;2023-12-20T00:06:35;101127.25;;;6.03;58.28
68822;BME280;55834;50.870;4.606;2023-12-20T00:09:01;101129.03;;;5.76;60.00
68822;BME280;55834;50.870;4.606;2023-12-20T00:11:26;101129.06;;;5.78;60.31
68822;BME280;55834;50.870;4.606;2023-12-20T00:13:51;101137.78;;;5.86;58.76
68822;BME280;55834;50.870;4.606;2023-12-20T00:16:17;101131.66;;;5.82;59.91
68822;BME280;55834;50.870;4.606;2023-12-20T00:18:42;101141.25;;;5.86;59.74
68822;BME280;55834;50.870;4.606;2023-12-20T00:21:08;101139.41;;;6.21;59.53
68822;BME280;55834;50.870;4.606;2023-12-20T00:23:33;101135.97;;;5.96;59.25
68822;BME280;55834;50.870;4.606;2023-12-20T00:25:58;101138.69;;;5.62;59.51
68822;BME280;55834;50.870;4.606;2023-12-20T00:28:24;101136.06;;;5.66;59.38
68822;BME280;55834;50.870;4.606;2023-12-20T00:30:49;101136.88;;;5.92;59.44
68822;BME280;55834;50.870;4.606;2023-12-20T00:33:14;101138.63;;;5.79;59.45
68822;BME280;55834;50.870;4.606;2023-12-20T00:35:40;101131.59;;;5.99;59.38
68822;BME280;55834;50.870;4.606;2023-12-20T00:38:05;101135.16;;;5.75;59.42
68822;BME280;55834;50.870;4.606;2023-12-20T00:40:32;101133.44;;;5.50;60.49
68822;BME280;55834;50.870;4.606;2023-12-20T00:42:58;101139.59;;;5.56;59.36
68822;BME280;55834;50.870;4.606;2023-12-20T00:45:23;101129.88;;;5.91;59.79
68822;BME280;55834;50.870;4.606;2023-12-20T00:47:49;101135.22;;;5.28;58.78
68822;BME280;55834;50.870;4.606;2023-12-20T00:50:14;101124.72;;;5.71;59.44
68822;BME280;55834;50.870;4.606;2023-12-20T00:52:39;101131.66;;;4.83;60.10
68822;BME280;55834;50.870;4.606;2023-12-20T00:55:05;101142.19;;;5.59;60.95
68822;BME280;55834;50.870;4.606;2023-12-20T00:57:31;101135.22;;;5.45;58.93
68822;BME280;55834;50.870;4.606;2023-12-20T00:59:56;101132.56;;;5.72;59.88
68822;BME280;55834;50.870;4.606;2023-12-20T01:02:22;101132.50;;;5.97;58.90
68822;BME280;55834;50.870;4.606;2023-12-20T01:04:47;101125.59;;;5.47;59.31
68822;BME280;55834;50.870;4.606;2023-12-20T01:07:12;101128.22;;;5.47;60.75
68822;BME280;55834;50.870;4.606;2023-12-20T01:09:38;101125.56;;;4.85;60.24
68822;BME280;55834;50.870;4.606;2023-12-20T01:12:03;101123.00;;;5.42;60.67
68822;BME280;55834;50.870;4.606;2023-12-20T01:14:29;101123.00;;;5.14;59.45
68822;BME280;55834;50.870;4.606;2023-12-20T01:16:54;101127.34;;;5.52;60.32
68822;BME280;55834;50.870;4.606;2023-12-20T01:19:19;101125.59;;;5.30;60.10
68822;BME280;55834;50.870;4.606;2023-12-20T01:21:45;101136.81;;;4.50;63.05
68822;BME280;55834;50.870;4.606;2023-12-20T01:24:10;101128.97;;;4.49;62.54
68822;BME280;55834;50.870;4.606;2023-12-20T01:26:35;101135.06;;;4.48;62.63
68822;BME280;55834;50.870;4.606;2023-12-20T01:29:01;101134.25;;;4.69;62.96
68822;BME280;55834;50.870;4.606;2023-12-20T01:31:26;101138.59;;;4.68;61.53
68822;BME280;55834;50.870;4.606;2023-12-20T01:33:52;101133.34;;;4.53;64.19
68822;BME280;55834;50.870;4.606;2023-12-20T01:36:18;101138.66;;;4.90;62.18
68822;BME280;55834;50.870;4.606;2023-12-20T01:38:43;101148.28;;;4.98;62.21
68822;BME280;55834;50.870;4.606;2023-12-20T01:41:08;101150.94;;;5.26;61.40
68822;BME280;55834;50.870;4.606;2023-12-20T01:43:34;101146.56;;;5.28;59.62
68822;BME280;55834;50.870;4.606;2023-12-20T01:46:00;101153.53;;;5.20;59.75
68822;BME280;55834;50.870;4.606;2023-12-20T01:48:26;101152.59;;;5.01;60.05
68822;BME280;55834;50.870;4.606;2023-12-20T01:50:53;101151.81;;;5.37;60.74
68822;BME280;55834;50.870;4.606;2023-12-20T01:53:20;101148.31;;;5.31;60.04
68822;BME280;55834;50.870;4.606;2023-12-20T01:55:49;101150.91;;;5.38;60.41
68822;BME280;55834;50.870;4.606;2023-12-20T01:58:15;101153.53;;;5.12;59.96
68822;BME280;55834;50.870;4.606;2023-12-20T02:00:41;101157.91;;;5.18;60.75
68822;BME280;55834;50.870;4.606;2023-12-20T02:03:07;101152.66;;;5.12;60.99
68822;BME280;55834;50.870;4.606;2023-12-20T02:05:34;101149.75;;;4.20;62.92
68822;BME280;55834;50.870;4.606;2023-12-20T02:08:00;101143.84;;;4.68;62.77
68822;BME280;55834;50.870;4.606;2023-12-20T02:10:26;101146.50;;;4.87;62.42
68822;BME280;55834;50.870;4.606;2023-12-20T02:12:51;101152.59;;;4.98;61.59
68822;BME280;55834;50.870;4.606;2023-12-20T02:15:17;101153.47;;;4.91;61.59
68822;BME280;55834;50.870;4.606;2023-12-20T02:17:43;101150.88;;;5.06;61.08
68822;BME280;55834;50.870;4.606;2023-12-20T02:20:09;101152.66;;;5.35;61.21
68822;BME280;55834;50.870;4.606;2023-12-20T02:22:34;101160.50;;;5.12;60.73
68822;BME280;55834;50.870;4.606;2023-12-20T02:25:00;101156.97;;;4.90;60.66
68822;BME280;55834;50.870;4.606;2023-12-20T02:27:26;101159.66;;;5.19;61.38
68822;BME280;55834;50.870;4.606;2023-12-20T02:29:52;101161.31;;;4.79;60.74
68822;BME280;55834;50.870;4.606;2023-12-20T02:32:18;101155.97;;;4.39;62.55
68822;BME280;55834;50.870;4.606;2023-12-20T02:34:44;101145.47;;;4.34;62.93
68822;BME280;55834;50.870;4.606;2023-12-20T02:37:09;101158.56;;;4.37;63.74
68822;BME280;55834;50.870;4.606;2023-12-20T02:39:35;101160.44;;;4.73;63.32
68822;BME280;55834;50.870;4.606;2023-12-20T02:42:00;101162.84;;;4.21;63.45
68822;BME280;55834;50.870;4.606;2023-12-20T02:44:26;101159.34;;;4.15;64.32
68822;BME280;55834;50.870;4.606;2023-12-20T02:46:51;101154.16;;;4.28;65.92
68822;BME280;55834;50.870;4.606;2023-12-20T02:49:16;101165.59;;;4.52;63.90
68822;BME280;55834;50.870;4.606;2023-12-20T02:51:42;101155.22;;;4.93;63.44
68822;BME280;55834;50.870;4.606;2023-12-20T02:54:07;101156.06;;;4.77;63.73
68822;BME280;55834;50.870;4.606;2023-12-20T02:56:33;101158.69;;;4.72;62.33
68822;BME280;55834;50.870;4.606;2023-12-20T02:58:58;101167.50;;;5.13;62.80
68822;BME280;55834;50.870;4.606;2023-12-20T03:01:24;101175.28;;;4.85;61.49
68822;BME280;55834;50.870;4.606;2023-12-20T03:03:50;101168.22;;;4.60;61.94
68822;BME280;55834;50.870;4.606;2023-12-20T03:06:18;101164.81;;;5.04;62.90
68822;BME280;55834;50.870;4.606;2023-12-20T03:08:44;101167.41;;;4.79;61.86
68822;BME280;55834;50.870;4.606;2023-12-20T03:11:10;101169.19;;;4.97;62.87
68822;BME280;55834;50.870;4.606;2023-12-20T03:13:35;101169.25;;;5.31;61.92
68822;BME280;55834;50.870;4.606;2023-12-20T03:16:01;101165.72;;;5.06;60.94
68822;BME280;55834;50.870;4.606;2023-12-20T03:18:26;101163.91;;;4.74;62.92
68822;BME280;55834;50.870;4.606;2023-12-20T03:20:53;101150.00;;;5.03;62.07
68822;BME280;55834;50.870;4.606;2023-12-20T03:23:19;101149.19;;;5.08;62.10
68822;BME280;55834;50.870;4.606;2023-12-20T03:25:44;101150.94;;;5.31;61.36
68822;BME280;55834;50.870;4.606;2023-12-20T03:28:09;101154.31;;;4.68;61.72
68822;BME280;55834;50.870;4.606;2023-12-20T03:30:35;101151.75;;;4.93;62.07
68822;BME280;55834;50.870;4.606;2023-12-20T03:33:00;101155.28;;;5.29;61.52
68822;BME280;55834;50.870;4.606;2023-12-20T03:35:25;101156.09;;;5.06;61.58
68822;BME280;55834;50.870;4.606;2023-12-20T03:37:51;101159.66;;;5.25;61.79
68822;BME280;55834;50.870;4.606;2023-12-20T03:40:17;101155.28;;;5.21;60.80
68822;BME280;55834;50.870;4.606;2023-12-20T03:42:42;101149.16;;;5.30;60.69
68822;BME280;55834;50.870;4.606;2023-12-20T03:45:08;101139.59;;;5.26;60.67
68822;BME280;55834;50.870;4.606;2023-12-20T03:47:33;101145.66;;;4.98;61.08
68822;BME280;55834;50.870;4.606;2023-12-20T03:49:59;101143.06;;;5.14;61.18
68822;BME280;55834;50.870;4.606;2023-12-20T03:52:24;101149.19;;;5.19;60.58
68822;BME280;55834;50.870;4.606;2023-12-20T03:54:49;101143.06;;;5.14;60.19
68822;BME280;55834;50.870;4.606;2023-12-20T03:57:15;101156.16;;;5.17;60.87
68822;BME280;55834;50.870;4.606;2023-12-20T03:59:40;101158.72;;;5.00;60.48
68822;BME280;55834;50.870;4.606;2023-12-20T04:02:06;101164.00;;;5.20;61.75
68822;BME280;55834;50.870;4.606;2023-12-20T04:04:31;101164.03;;;5.51;61.35
68822;BME280;55834;50.870;4.606;2023-12-20T04:06:56;101168.31;;;4.92;61.53
68822;BME280;55834;50.870;4.606;2023-12-20T04:09:22;101158.72;;;5.00;62.30
68822;BME280;55834;50.870;4.606;2023-12-20T04:11:47;101150.91;;;5.35;62.21
68822;BME280;55834;50.870;4.606;2023-12-20T04:14:13;101150.78;;;4.66;63.35
68822;BME280;55834;50.870;4.606;2023-12-20T04:16:38;101148.31;;;5.17;63.03
68822;BME280;55834;50.870;4.606;2023-12-20T04:19:04;101143.94;;;5.40;61.44
68822;BME280;55834;50.870;4.606;2023-12-20T04:21:30;101168.25;;;4.72;61.32
68822;BME280;55834;50.870;4.606;2023-12-20T04:23:56;101168.31;;;4.92;62.10
68822;BME280;55834;50.870;4.606;2023-12-20T04:26:21;101165.63;;;4.75;62.23
68822;BME280;55834;50.870;4.606;2023-12-20T04:28:46;101164.78;;;4.76;62.03
68822;BME280;55834;50.870;4.606;2023-12-20T04:31:12;101170.97;;;5.12;61.75
68822;BME280;55834;50.870;4.606;2023-12-20T04:33:37;101164.00;;;5.32;61.83
68822;BME280;55834;50.870;4.606;2023-12-20T04:36:03;101167.44;;;5.01;61.36
68822;BME280;55834;50.870;4.606;2023-12-20T04:38:29;101164.81;;;4.82;61.10
68822;BME280;55834;50.870;4.606;2023-12-20T04:40:55;101162.91;;;4.37;62.96
68822;BME280;55834;50.870;4.606;2023-12-20T04:43:21;101164.72;;;4.51;63.01
68822;BME280;55834;50.870;4.606;2023-12-20T04:45:46;101167.22;;;4.21;63.03
68822;BME280;55834;50.870;4.606;2023-12-20T04:48:12;101152.44;;;4.26;63.22
68822;BME280;55834;50.870;4.606;2023-12-20T04:50:37;101153.19;;;4.05;63.09
68822;BME280;55834;50.870;4.606;2023-12-20T04:53:03;101163.72;;;4.25;63.70
68822;BME280;55834;50.870;4.606;2023-12-20T04:55:28;101156.88;;;4.58;62.88
68822;BME280;55834;50.870;4.606;2023-12-20T04:57:54;101155.78;;;4.00;63.31
68822;BME280;55834;50.870;4.606;2023-12-20T05:00:20;101155.16;;;4.60;63.01
68822;BME280;55834;50.870;4.606;2023-12-20T05:02:45;101152.56;;;4.69;62.29
68822;BME280;55834;50.870;4.606;2023-12-20T05:05:11;101149.97;;;4.76;61.87
68822;BME280;55834;50.870;4.606;2023-12-20T05:07:36;101147.34;;;4.73;61.04
68822;BME280;55834;50.870;4.606;2023-12-20T05:10:02;101160.19;;;4.14;63.45
68822;BME280;55834;50.870;4.606;2023-12-20T05:12:30;101158.50;;;4.25;63.51
68822;BME280;55834;50.870;4.606;2023-12-20T05:14:55;101154.25;;;4.53;62.62
68822;BME280;55834;50.870;4.606;2023-12-20T05:17:20;101155.88;;;4.22;61.99
68822;BME280;55834;50.870;4.606;2023-12-20T05:19:46;101148.66;;;3.72;64.16
68822;BME280;55834;50.870;4.606;2023-12-20T05:22:11;101153.97;;;3.89;64.47
68822;BME280;55834;50.870;4.606;2023-12-20T05:24:36;101146.34;;;4.36;64.97
68822;BME280;55834;50.870;4.606;2023-12-20T05:27:02;101156.78;;;4.28;63.89
68822;BME280;55834;50.870;4.606;2023-12-20T05:29:27;101149.94;;;4.58;63.32
68822;BME280;55834;50.870;4.606;2023-12-20T05:31:53;101145.53;;;4.57;61.80
68822;BME280;55834;50.870;4.606;2023-12-20T05:34:19;101142.97;;;4.68;61.40
68822;BME280;55834;50.870;4.606;2023-12-20T05:36:45;101148.19;;;4.68;61.16
68822;BME280;55834;50.870;4.606;2023-12-20T05:39:10;101147.22;;;4.29;63.36
68822;BME280;55834;50.870;4.606;2023-12-20T05:41:36;101160.47;;;3.27;65.33
68822;BME280;55834;50.870;4.606;2023-12-20T05:44:01;101158.41;;;4.05;64.24
68822;BME280;55834;50.870;4.606;2023-12-20T05:46:27;101157.59;;;4.15;63.39
68822;BME280;55834;50.870;4.606;2023-12-20T05:48:52;101161.13;;;4.20;63.30
68822;BME280;55834;50.870;4.606;2023-12-20T05:51:18;101166.97;;;3.78;64.50
68822;BME280;55834;50.870;4.606;2023-12-20T05:53:44;101167.50;;;3.35;66.15
68822;BME280;55834;50.870;4.606;2023-12-20T05:56:10;101166.88;;;3.66;65.11
68822;BME280;55834;50.870;4.606;2023-12-20T05:58:35;101170.94;;;3.28;66.98
68822;BME280;55834;50.870;4.606;2023-12-20T06:01:03;101185.81;;;3.37;65.88
68822;BME280;55834;50.870;4.606;2023-12-20T06:03:29;101181.59;;;3.56;65.69
68822;BME280;55834;50.870;4.606;2023-12-20T06:05:54;101187.06;;;2.89;67.26
68822;BME280;55834;50.870;4.606;2023-12-20T06:08:20;101170.31;;;3.58;65.91
68822;BME280;55834;50.870;4.606;2023-12-20T06:10:45;101185.78;;;3.34;66.78
68822;BME280;55834;50.870;4.606;2023-12-20T06:13:11;101179.91;;;3.59;66.55
68822;BME280;55834;50.870;4.606;2023-12-20T06:15:38;101178.28;;;3.77;64.94
68822;BME280;55834;50.870;4.606;2023-12-20T06:18:03;101182.59;;;3.76;64.14
68822;BME280;55834;50.870;4.606;2023-12-20T06:20:29;101190.56;;;3.93;64.77
68822;BME280;55834;50.870;4.606;2023-12-20T06:22:54;101189.78;;;4.08;63.53
68822;BME280;55834;50.870;4.606;2023-12-20T06:25:20;101191.88;;;3.36;65.27
68822;BME280;55834;50.870;4.606;2023-12-20T06:27:45;101191.28;;;3.74;63.98
68822;BME280;55834;50.870;4.606;2023-12-20T06:30:11;101186.31;;;4.09;64.21
68822;BME280;55834;50.870;4.606;2023-12-20T06:32:36;101200.38;;;4.34;63.26
68822;BME280;55834;50.870;4.606;2023-12-20T06:35:03;101200.88;;;3.72;63.37
68822;BME280;55834;50.870;4.606;2023-12-20T06:37:30;101194.66;;;3.59;65.81
68822;BME280;55834;50.870;4.606;2023-12-20T06:39:55;101203.56;;;3.84;65.56
68822;BME280;55834;50.870;4.606;2023-12-20T06:42:22;101208.72;;;2.83;67.39
68822;BME280;55834;50.870;4.606;2023-12-20T06:44:47;101193.06;;;3.76;66.29
68822;BME280;55834;50.870;4.606;2023-12-20T06:47:12;101195.09;;;3.12;66.60
68822;BME280;55834;50.870;4.606;2023-12-20T06:49:39;101191.28;;;3.71;65.08
68822;BME280;55834;50.870;4.606;2023-12-20T06:52:05;101177.31;;;3.64;64.60
68822;BME280;55834;50.870;4.606;2023-12-20T06:54:30;101166.25;;;4.08;63.52
68822;BME280;55834;50.870;4.606;2023-12-20T06:56:55;101162.50;;;3.61;65.02
68822;BME280;55834;50.870;4.606;2023-12-20T06:59:22;101176.19;;;3.33;65.94
68822;BME280;55834;50.870;4.606;2023-12-20T07:01:48;101162.16;;;3.18;65.63
68822;BME280;55834;50.870;4.606;2023-12-20T07:04:15;101177.56;;;2.94;64.98
68822;BME280;55834;50.870;4.606;2023-12-20T07:06:40;101180.25;;;3.03;67.35
68822;BME280;55834;50.870;4.606;2023-12-20T07:09:06;101185.69;;;3.23;64.90
68822;BME280;55834;50.870;4.606;2023-12-20T07:11:31;101179.94;;;3.67;64.19
68822;BME280;55834;50.870;4.606;2023-12-20T07:13:57;101191.78;;;3.22;64.47
68822;BME280;55834;50.870;4.606;2023-12-20T07:16:22;101180.75;;;3.58;63.80
68822;BME280;55834;50.870;4.606;2023-12-20T07:18:48;101177.44;;;3.81;63.27
68822;BME280;55834;50.870;4.606;2023-12-20T07:21:13;101170.56;;;3.95;63.11
68822;BME280;55834;50.870;4.606;2023-12-20T07:23:38;101169.41;;;3.52;64.18
68822;BME280;55834;50.870;4.606;2023-12-20T07:26:04;101173.72;;;3.48;64.04
68822;BME280;55834;50.870;4.606;2023-12-20T07:28:29;101161.84;;;3.99;63.94
68822;BME280;55834;50.870;4.606;2023-12-20T07:30:55;101174.59;;;3.49;64.48
68822;BME280;55834;50.870;4.606;2023-12-20T07:33:20;101174.88;;;3.89;63.41
68822;BME280;55834;50.870;4.606;2023-12-20T07:35:46;101180.88;;;3.75;62.77
68822;BME280;55834;50.870;4.606;2023-12-20T07:38:12;101187.47;;;3.30;64.58
68822;BME280;55834;50.870;4.606;2023-12-20T07:40:37;101182.88;;;3.05;63.62
68822;BME280;55834;50.870;4.606;2023-12-20T07:43:04;101184.72;;;3.16;64.58
68822;BME280;55834;50.870;4.606;2023-12-20T07:45:29;101185.19;;;2.76;65.42
68822;BME280;55834;50.870;4.606;2023-12-20T07:47:54;101185.28;;;2.85;66.04
68822;BME280;55834;50.870;4.606;2023-12-20T07:50:20;101187.31;;;3.13;64.79
68822;BME280;55834;50.870;4.606;2023-12-20T07:52:45;101191.09;;;3.46;64.30
68822;BME280;55834;50.870;4.606;2023-12-20T07:55:10;101187.28;;;3.10;63.70
68822;BME280;55834;50.870;4.606;2023-12-20T07:57:36;101194.91;;;2.90;64.89
68822;BME280;55834;50.870;4.606;2023-12-20T08:00:01;101194.66;;;3.56;64.43
68822;BME280;55834;50.870;4.606;2023-12-20T08:02:29;101196.91;;;3.17;65.02
68822;BME280;55834;50.870;4.606;2023-12-20T08:04:54;101197.94;;;3.32;65.11
68822;BME280;55834;50.870;4.606;2023-12-20T08:07:19;101197.97;;;3.35;65.21
68822;BME280;55834;50.870;4.606;2023-12-20T08:09:45;101197.75;;;3.13;65.91
68822;BME280;55834;50.870;4.606;2023-12-20T08:12:10;101196.34;;;3.49;64.95
68822;BME280;55834;50.870;4.606;2023-12-20T08:14:36;101198.97;;;3.51;63.70
68822;BME280;55834;50.870;4.606;2023-12-20T08:17:02;101197.22;;;3.48;65.55
68822;BME280;55834;50.870;4.606;2023-12-20T08:19:28;101206.94;;;2.79;65.79
68822;BME280;55834;50.870;4.606;2023-12-20T08:21:53;101192.88;;;3.49;64.62
68822;BME280;55834;50.870;4.606;2023-12-20T08:24:18;101190.38;;;3.64;65.26
68822;BME280;55834;50.870;4.606;2023-12-20T08:26:44;101201.56;;;3.49;64.58
68822;BME280;55834;50.870;4.606;2023-12-20T08:29:13;101192.31;;;3.93;63.20
68822;BME280;55834;50.870;4.606;2023-12-20T08:31:38;101197.50;;;3.91;63.88
68822;BME280;55834;50.870;4.606;2023-12-20T08:34:04;101201.84;;;3.88;63.07
68822;BME280;55834;50.870;4.606;2023-12-20T08:36:29;101200.19;;;4.00;62.96
68822;BME280;55834;50.870;4.606;2023-12-20T08:38:54;101193.22;;;4.01;63.31
68822;BME280;55834;50.870;4.606;2023-12-20T08:41:20;101209.78;;;2.99;65.65
68822;BME280;55834;50.870;4.606;2023-12-20T08:43:46;101203.06;;;3.21;66.80
68822;BME280;55834;50.870;4.606;2023-12-20T08:46:11;101196.19;;;3.31;65.81
68822;BME280;55834;50.870;4.606;2023-12-20T08:48:37;101188.91;;;4.07;65.20
68822;BME280;55834;50.870;4.606;2023-12-20T08:51:04;101203.63;;;3.93;64.23
68822;BME280;55834;50.870;4.606;2023-12-20T08:53:32;101195.00;;;4.03;63.95
68822;BME280;55834;50.870;4.606;2023-12-20T08:55:58;101203.69;;;4.01;64.58
68822;BME280;55834;50.870;4.606;2023-12-20T08:58:26;101184.59;;;4.14;63.17
68822;BME280;55834;50.870;4.606;2023-12-20T09:00:52;101179.34;;;4.11;63.40
68822;BME280;55834;50.870;4.606;2023-12-20T09:03:17;101165.50;;;4.26;63.70
68822;BME280;55834;50.870;4.606;2023-12-20T09:05:43;101174.00;;;3.91;63.86
68822;BME280;55834;50.870;4.606;2023-12-20T09:08:08;101164.47;;;3.99;64.28
68822;BME280;55834;50.870;4.606;2023-12-20T09:10:35;101182.72;;;3.93;64.65
68822;BME280;55834;50.870;4.606;2023-12-20T09:13:01;101170.47;;;3.80;64.07
68822;BME280;55834;50.870;4.606;2023-12-20T09:15:27;101183.28;;;3.49;64.35
68822;BME280;55834;50.870;4.606;2023-12-20T09:17:53;101186.69;;;3.37;65.75
68822;BME280;55834;50.870;4.606;2023-12-20T09:20:19;101181.63;;;3.57;65.59
68822;BME280;55834;50.870;4.606;2023-12-20T09:22:44;101165.56;;;4.41;64.23
68822;BME280;55834;50.870;4.606;2023-12-20T09:25:10;101181.06;;;4.04;63.40
68822;BME280;55834;50.870;4.606;2023-12-20T09:27:36;101174.88;;;3.90;64.12
68822;BME280;55834;50.870;4.606;2023-12-20T09:30:02;101190.50;;;3.81;65.24
68822;BME280;55834;50.870;4.606;2023-12-20T09:32:28;101176.31;;;3.47;64.75
68822;BME280;55834;50.870;4.606;2023-12-20T09:34:54;101178.31;;;3.80;64.95
68822;BME280;55834;50.870;4.606;2023-12-20T09:37:20;101175.88;;;4.09;65.08
68822;BME280;55834;50.870;4.606;2023-12-20T09:39:45;101169.03;;;4.45;63.18
68822;BME280;55834;50.870;4.606;2023-12-20T09:42:11;101177.78;;;4.47;62.92
68822;BME280;55834;50.870;4.606;2023-12-20T09:44:42;101176.84;;;4.37;63.97
68822;BME280;55834;50.870;4.606;2023-12-20T09:47:09;101182.53;;;3.64;65.23
68822;BME280;55834;50.870;4.606;2023-12-20T09:49:36;101168.03;;;4.17;64.85
68822;BME280;55834;50.870;4.606;2023-12-20T09:52:04;101165.44;;;4.20;63.97
68822;BME280;55834;50.870;4.606;2023-12-20T09:54:31;101167.41;;;4.84;63.42
68822;BME280;55834;50.870;4.606;2023-12-20T09:56:56;101176.97;;;4.74;62.50
68822;BME280;55834;50.870;4.606;2023-12-20T09:59:22;101172.34;;;4.01;64.69
68822;BME280;55834;50.870;4.606;2023-12-20T10:01:48;101185.25;;;3.79;65.01
68822;BME280;55834;50.870;4.606;2023-12-20T10:04:15;101176.78;;;4.19;63.87
68822;BME280;55834;50.870;4.606;2023-12-20T10:06:42;101193.09;;;3.78;64.54
68822;BME280;55834;50.870;4.606;2023-12-20T10:09:10;101171.50;;;4.11;63.55
68822;BME280;55834;50.870;4.606;2023-12-20T10:11:37;101182.19;;;4.68;64.16
68822;BME280;55834;50.870;4.606;2023-12-20T10:14:03;101181.41;;;4.90;62.30
68822;BME280;55834;50.870;4.606;2023-12-20T10:16:29;101177.91;;;5.01;61.92
68822;BME280;55834;50.870;4.606;2023-12-20T10:18:56;101167.41;;;4.70;63.06
68822;BME280;55834;50.870;4.606;2023-12-20T10:21:25;101169.28;;;5.22;61.63
68822;BME280;55834;50.870;4.606;2023-12-20T10:23:55;101169.03;;;4.45;61.98
68822;BME280;55834;50.870;4.606;2023-12-20T10:26:27;101186.53;;;4.66;63.89
68822;BME280;55834;50.870;4.606;2023-12-20T10:28:54;101164.81;;;4.87;63.04
68822;BME280;55834;50.870;4.606;2023-12-20T10:31:30;101164.78;;;4.67;62.47
68822;BME280;55834;50.870;4.606;2023-12-20T10:33:56;101158.69;;;4.86;63.27
68822;BME280;55834;50.870;4.606;2023-12-20T10:36:23;101162.28;;;5.28;61.54
68822;BME280;55834;50.870;4.606;2023-12-20T10:38:50;101161.19;;;4.42;62.82
68822;BME280;55834;50.870;4.606;2023-12-20T10:41:20;101161.41;;;5.23;61.28
68822;BME280;55834;50.870;4.606;2023-12-20T10:43:51;101146.56;;;5.08;62.26
68822;BME280;55834;50.870;4.606;2023-12-20T10:46:16;101150.78;;;4.66;63.03
68822;BME280;55834;50.870;4.606;2023-12-20T10:48:44;101149.91;;;4.50;64.56
68822;BME280;55834;50.870;4.606;2023-12-20T10:51:11;101142.13;;;4.76;63.65
68822;BME280;55834;50.870;4.606;2023-12-20T10:53:38;101147.16;;;4.21;64.24
68822;BME280;55834;50.870;4.606;2023-12-20T10:56:06;101136.09;;;5.08;62.86
68822;BME280;55834;50.870;4.606;2023-12-20T10:58:34;101123.88;;;5.15;62.56
68822;BME280;55834;50.870;4.606;2023-12-20T11:01:01;101123.84;;;5.04;62.30
68822;BME280;55834;50.870;4.606;2023-12-20T11:03:27;101121.22;;;4.84;62.40
68822;BME280;55834;50.870;4.606;2023-12-20T11:09:22;101111.59;;;4.75;62.38
68822;BME280;55834;50.870;4.606;2023-12-20T11:12:03;101115.16;;;5.22;62.76
68822;BME280;55834;50.870;4.606;2023-12-20T11:14:47;101111.66;;;5.32;62.04
68822;BME280;55834;50.870;4.606;2023-12-20T11:17:13;101109.81;;;5.86;61.60
68822;BME280;55834;50.870;4.606;2023-12-20T11:22:21;101100.31;;;5.53;62.23
68822;BME280;55834;50.870;4.606;2023-12-20T11:24:47;101120.34;;;5.02;63.03
68822;BME280;55834;50.870;4.606;2023-12-20T11:27:14;101119.53;;;5.28;63.39
68822;BME280;55834;50.870;4.606;2023-12-20T11:29:39;101112.44;;;5.83;62.35
68822;BME280;55834;50.870;4.606;2023-12-20T11:34:51;101119.53;;;5.14;64.33
68822;BME280;55834;50.870;4.606;2023-12-20T11:37:16;101111.59;;;4.74;64.44
68822;BME280;55834;50.870;4.606;2023-12-20T11:39:44;101111.63;;;5.60;64.49
68822;BME280;55834;50.870;4.606;2023-12-20T11:42:10;101102.06;;;5.37;64.05
68822;BME280;55834;50.870;4.606;2023-12-20T11:44:37;101095.94;;;5.29;64.91
68822;BME280;55834;50.870;4.606;2023-12-20T11:47:03;101085.41;;;5.77;63.93
68822;BME280;55834;50.870;4.606;2023-12-20T11:49:28;101089.84;;;5.09;65.60
68822;BME280;55834;50.870;4.606;2023-12-20T11:51:56;101085.47;;;5.48;65.38
68822;BME280;55834;50.870;4.606;2023-12-20T11:54:22;101086.06;;;6.22;63.69
68822;BME280;55834;50.870;4.606;2023-12-20T11:56:47;101076.47;;;6.19;62.97
68822;BME280;55834;50.870;4.606;2023-12-20T11:59:13;101076.69;;;5.61;64.63
68822;BME280;55834;50.870;4.606;2023-12-20T12:01:38;101080.09;;;5.84;65.19
68822;BME280;55834;50.870;4.606;2023-12-20T12:04:07;101069.72;;;5.55;65.46
68822;BME280;55834;50.870;4.606;2023-12-20T12:06:32;101068.66;;;6.15;64.44
68822;BME280;55834;50.870;4.606;2023-12-20T12:08:58;101071.38;;;5.87;64.08
68822;BME280;55834;50.870;4.606;2023-12-20T12:11:24;101063.59;;;5.58;65.09
68822;BME280;55834;50.870;4.606;2023-12-20T12:13:50;101064.50;;;5.48;65.32
68822;BME280;55834;50.870;4.606;2023-12-20T12:16:19;101057.50;;;5.62;64.53
68822;BME280;55834;50.870;4.606;2023-12-20T12:18:45;101058.28;;;5.87;64.35
68822;BME280;55834;50.870;4.606;2023-12-20T12:21:12;101056.59;;;5.69;64.31
68822;BME280;55834;50.870;4.606;2023-12-20T12:23:43;101046.09;;;5.64;65.97
68822;BME280;55834;50.870;4.606;2023-12-20T12:26:09;101045.16;;;5.95;65.21
68822;BME280;55834;50.870;4.606;2023-12-20T12:28:34;101044.28;;;5.94;64.60
68822;BME280;55834;50.870;4.606;2023-12-20T12:31:00;101051.38;;;5.58;64.69
68822;BME280;55834;50.870;4.606;2023-12-20T12:33:26;101049.41;;;6.17;63.58
68822;BME280;55834;50.870;4.606;2023-12-20T12:35:52;101051.22;;;6.04;63.39
68822;BME280;55834;50.870;4.606;2023-12-20T12:38:26;101046.66;;;6.39;62.84
68822;BME280;55834;50.870;4.606;2023-12-20T12:40:51;101036.41;;;5.94;62.78
68822;BME280;55834;50.870;4.606;2023-12-20T12:43:18;101041.81;;;5.51;65.03
68822;BME280;55834;50.870;4.606;2023-12-20T12:45:44;101031.19;;;5.86;63.65
68822;BME280;55834;50.870;4.606;2023-12-20T12:48:09;101044.34;;;5.77;63.26
68822;BME280;55834;50.870;4.606;2023-12-20T12:50:35;101039.16;;;5.65;64.32
68822;BME280;55834;50.870;4.606;2023-12-20T12:53:02;101024.16;;;6.01;62.32
68822;BME280;55834;50.870;4.606;2023-12-20T12:55:28;101030.13;;;6.29;62.03
68822;BME280;55834;50.870;4.606;2023-12-20T12:57:53;101017.00;;;6.29;62.31
68822;BME280;55834;50.870;4.606;2023-12-20T13:00:19;101030.34;;;5.81;63.57
68822;BME280;55834;50.870;4.606;2023-12-20T13:02:44;101019.81;;;5.87;63.85